METAR Data
IDs: Format: Raw Decoded Include TAF

Data at: 1958 UTC 17 Nov 2019

KEZZ 171935Z AUTO 35011KT 10SM BKN028 OVC035 09/03 A2995 RMK AO2 T00890031
KEZZ 171915Z AUTO 33012G15KT 10SM BKN025 OVC033 09/03 A2996 RMK AO2 T00900034
KEZZ 171855Z AUTO 33011KT 10SM OVC023 09/04 A2996 RMK AO2 T00900037
KEZZ 171835Z AUTO 33012KT 10SM BKN021 OVC029 09/04 A2996 RMK AO2 T00920040
KEZZ 171815Z AUTO 33015KT 10SM OVC020 09/04 A2997 RMK AO2 T00910042
KEZZ 171755Z AUTO 33015KT 10SM OVC016 09/04 A2997 RMK AO2 T00870043 10088 20063
KEZZ 171735Z AUTO 34016G19KT 10SM BKN014 BKN022 OVC039 08/04 A2998 RMK AO2 T00840045
KEZZ 171715Z AUTO 33016KT 10SM OVC014 08/04 A2998 RMK AO2 T00770044
KEZZ 171655Z AUTO 33014KT 10SM OVC014 08/04 A2999 RMK AO2 T00760043
KEZZ 171635Z AUTO 32013KT 10SM BKN014 OVC023 08/04 A2999 RMK AO2 T00750042
KEZZ 171615Z AUTO 32014G18KT 10SM BKN016 BKN025 OVC100 07/04 A2998 RMK AO2 T00750041
KEZZ 171555Z AUTO 30010KT 10SM -RA BKN016 BKN042 OVC100 07/04 A2998 RMK AO2 T00720039
KEZZ 171535Z AUTO 31008KT 10SM SCT016 BKN100 OVC120 07/03 A2998 RMK AO2 T00720035
KEZZ 171515Z AUTO 31009KT 10SM SCT070 OVC090 07/03 A2997 RMK AO2 T00700030
KEZZ 171455Z AUTO 32009KT 10SM OVC070 07/03 A2997 RMK AO2 T00670026
KEZZ 171435Z AUTO 31008KT 10SM BKN080 BKN090 OVC120 06/02 A2996 RMK AO2 T00630020
KEZZ 171415Z AUTO 32010G15KT 10SM BKN100 BKN120 06/01 A2996 RMK AO2 T00640014
KEZZ 171355Z AUTO 31008KT 10SM SCT100 BKN120 06/00 A2995 RMK AO2 T00640005
KEZZ 171335Z AUTO 28010KT 10SM BKN100 BKN120 07/00 A2996 RMK AO2 T00671000
KEZZ 171315Z AUTO 26008KT 10SM BKN110 07/00 A2995 RMK AO2 T00711003
KEZZ 171255Z AUTO 25007KT 10SM BKN110 07/00 A2995 RMK AO2 T00691004
KEZZ 171235Z AUTO 23007KT 10SM BKN100 BKN120 07/M01 A2995 RMK AO2 T00701007
KEZZ 171215Z AUTO 22008KT 10SM BKN100 BKN110 07/M01 A2995 RMK AO2 T00701008
KEZZ 171155Z AUTO 22008KT 10SM OVC100 07/M01 A2995 RMK AO2 T00701009 10073 20051
KEZZ 171135Z AUTO 23007KT 10SM BKN090 07/M01 A2996 RMK AO2 T00671011
KEZZ 171115Z AUTO 22008KT 10SM CLR 07/M01 A2996 RMK AO2 T00671015
KEZZ 171055Z AUTO 22006KT 10SM CLR 07/M01 A2997 RMK AO2 T00651015
KEZZ 171035Z AUTO 21006KT 10SM CLR 07/M02 A2997 RMK AO2 T00691018
KEZZ 171015Z AUTO 21006KT 10SM CLR 07/M02 A2998 RMK AO2 T00711020
KEZZ 170955Z AUTO 19008KT 10SM CLR 07/M02 A2998 RMK AO2 T00721020
KEZZ 170935Z AUTO 19008KT 10SM CLR 07/M02 A2998 RMK AO2 T00711022
KEZZ 170915Z AUTO 19007KT 10SM CLR 07/M02 A2998 RMK AO2 T00681022
KEZZ 170855Z AUTO 17006KT 10SM CLR 07/M02 A2999 RMK AO2 T00661023
KEZZ 170835Z AUTO 16007KT 10SM CLR 06/M02 A2999 RMK AO2 T00571022
KEZZ 170815Z AUTO 15006KT 10SM CLR 05/M02 A3000 RMK AO2 T00541024
KEZZ 170755Z AUTO 15007KT 10SM CLR 05/M02 A3000 RMK AO2 T00551024
KEZZ 170735Z AUTO 16007KT 10SM CLR 05/M02 A3000 RMK AO2 T00541024
KEZZ 170715Z AUTO 15007KT 10SM CLR 05/M03 A3001 RMK AO2 T00541025
KEZZ 170655Z AUTO 16007KT 10SM CLR 05/M03 A3002 RMK AO2 T00541025
KEZZ 170635Z AUTO 15008KT 10SM CLR 05/M02 A3004 RMK AO2 T00531024
KEZZ 170615Z AUTO 15008KT 10SM CLR 05/M02 A3004 RMK AO2 T00521024
KEZZ 170555Z AUTO 14006KT 10SM CLR 05/M02 A3005 RMK AO2 T00521025 10084 20045
KEZZ 170535Z AUTO 14006KT 10SM CLR 05/M02 A3005 RMK AO2 T00531024
KEZZ 170515Z AUTO 14007KT 10SM CLR 05/M03 A3006 RMK AO2 T00501025
KEZZ 170455Z AUTO 15006KT 10SM CLR 05/M03 A3007 RMK AO2 T00491029
KEZZ 170435Z AUTO 15006KT 10SM CLR 05/M03 A3007 RMK AO2 T00551026
KEZZ 170415Z AUTO 14009KT 10SM CLR 05/M03 A3007 RMK AO2 T00461029
KEZZ 170355Z AUTO 13008KT 10SM CLR 05/M03 A3007 RMK AO2 T00501032
KEZZ 170335Z AUTO 13003KT 10SM CLR 05/M03 A3008 RMK AO2 T00481030
KEZZ 170315Z AUTO 12005KT 10SM CLR 05/M03 A3007 RMK AO2 T00521030
KEZZ 170255Z AUTO 12006KT 10SM CLR 05/M03 A3007 RMK AO2 T00521032
KEZZ 170235Z AUTO 13005KT 10SM CLR 06/M03 A3007 RMK AO2 T00581033
KEZZ 170215Z AUTO 14006KT 10SM CLR 06/M03 A3006 RMK AO2 T00611032
KEZZ 170155Z AUTO 13007KT 10SM CLR 06/M03 A3005 RMK AO2 T00621031
KEZZ 170135Z AUTO 13008KT 10SM CLR 06/M03 A3005 RMK AO2 T00651031
KEZZ 170115Z AUTO 13009KT 10SM CLR 07/M03 A3005 RMK AO2 T00681031
KEZZ 170055Z AUTO 14009KT 10SM CLR 07/M03 A3005 RMK AO2 T00721030
KEZZ 170035Z AUTO 14010KT 10SM CLR 08/M03 A3005 RMK AO2 T00771030
KEZZ 170015Z AUTO 14010KT 10SM CLR 08/M03 A3005 RMK AO2 T00801029
KEZZ 162355Z AUTO 14011KT 10SM CLR 08/M03 A3004 RMK AO2 T00821028 10132 20081 401321017
KEZZ 162335Z AUTO 13010KT 10SM CLR 08/M03 A3004 RMK AO2 T00831029
KEZZ 162315Z AUTO 14010KT 10SM CLR 09/M03 A3005 RMK AO2 T00891029
KEZZ 162255Z AUTO 15009KT 10SM CLR 10/M03 A3005 RMK AO2 T01001030
KEZZ 162235Z AUTO 15010KT 10SM CLR 11/M03 A3006 RMK AO2 T01051030
KEZZ 162215Z AUTO 15011KT 10SM CLR 11/M03 A3007 RMK AO2 T01131030
KEZZ 162155Z AUTO 15012KT 10SM CLR 12/M03 A3008 RMK AO2 T01231031
KEZZ 162135Z AUTO 16014KT 10SM CLR 13/M03 A3008 RMK AO2 T01251032
KEZZ 162115Z AUTO 17011KT 10SM CLR 13/M03 A3008 RMK AO2 T01301033
KEZZ 162055Z AUTO 14012G20KT 10SM CLR 13/M03 A3009 RMK AO2 T01291030
KEZZ 162035Z AUTO 14014G18KT 10SM CLR 12/M03 A3009 RMK AO2 T01241030
KEZZ 162015Z AUTO 14016KT 10SM CLR 12/M03 A3010 RMK AO2 T01241030
KEZZ 161955Z AUTO 15012KT 10SM CLR 12/M04 A3010 RMK AO2 T01231035
KEZZ 161935Z AUTO 15013KT 10SM CLR 12/M04 A3012 RMK AO2 T01231037
KEZZ 161915Z AUTO 15015KT 10SM CLR 12/M04 A3012 RMK AO2 T01231040
KEZZ 161855Z AUTO 15013KT 10SM CLR 12/M04 A3013 RMK AO2 T01191042
KEZZ 161835Z AUTO 14014KT 10SM CLR 12/M04 A3015 RMK AO2 T01191040
KEZZ 161815Z AUTO 15013G18KT 10SM CLR 11/M04 A3016 RMK AO2 T01141042
KEZZ 161755Z AUTO 15013KT 10SM CLR 11/M04 A3018 RMK AO2 T01131040 10115 21017
KEZZ 161735Z AUTO 16013G16KT 10SM CLR 11/M04 A3019 RMK AO2 T01071043
KEZZ 161715Z AUTO 16009KT 10SM CLR 10/M05 A3021 RMK AO2 T01011045
KEZZ 161655Z AUTO 16011KT 7SM CLR 10/M05 A3021 RMK AO2 T00971046
KEZZ 161635Z AUTO 16009KT 10SM CLR 08/M05 A3023 RMK AO2 T00751054
KEZZ 161615Z AUTO 15012KT 10SM CLR 08/M05 A3023 RMK AO2 T00751052
KEZZ 161555Z AUTO 14012KT 10SM CLR 06/M05 A3024 RMK AO2 T00641048
KEZZ 161535Z AUTO 15011KT 10SM CLR 05/M05 A3025 RMK AO2 T00531049
KEZZ 161515Z AUTO 14011KT 10SM CLR 04/M06 A3025 RMK AO2 T00391056
KEZZ 161455Z AUTO 14011KT 10SM CLR 03/M06 A3026 RMK AO2 T00301056
KEZZ 161435Z AUTO 15011KT 10SM CLR 02/M06 A3026 RMK AO2 T00191063
KEZZ 161415Z AUTO 15008KT 10SM CLR 01/M07 A3027 RMK AO2 T00071065
KEZZ 161355Z AUTO 15009KT 10SM CLR 00/M07 A3027 RMK AO2 T10031068
KEZZ 161335Z AUTO 15007KT 10SM CLR M01/M07 A3027 RMK AO2 T10111070
KEZZ 161315Z AUTO 14008KT 10SM CLR M02/M07 A3026 RMK AO2 T10161072
KEZZ 161255Z AUTO 14007KT 10SM CLR M01/M07 A3026 RMK AO2 T10141074
KEZZ 161235Z AUTO 14007KT 10SM CLR M01/M07 A3027 RMK AO2 T10131073
KEZZ 161215Z AUTO 14009KT 10SM CLR M01/M07 A3026 RMK AO2 T10071069
KEZZ 161155Z AUTO 14008KT 10SM CLR M01/M07 A3026 RMK AO2 T10081071 10007 21010
KEZZ 161135Z AUTO 15009KT 10SM CLR M01/M07 A3026 RMK AO2 T10061072
KEZZ 161115Z AUTO 14008KT 10SM CLR 00/M07 A3026 RMK AO2 T10041073
KEZZ 161055Z AUTO 15007KT 10SM CLR 00/M07 A3027 RMK AO2 T10041073
KEZZ 161035Z AUTO 16009KT 10SM CLR 00/M07 A3027 RMK AO2 T10011072
KEZZ 161015Z AUTO 16008KT 10SM CLR 00/M07 A3027 RMK AO2 T10001072
KEZZ 160955Z AUTO 15009KT 10SM CLR 00/M07 A3027 RMK AO2 T10031071
KEZZ 160935Z AUTO 14008KT 10SM CLR M01/M07 A3027 RMK AO2 T10071071
KEZZ 160915Z AUTO 14008KT 10SM CLR M01/M07 A3027 RMK AO2 T10091071
KEZZ 160855Z AUTO 13007KT 10SM CLR 00/M07 A3028 RMK AO2 T10051069
KEZZ 160835Z AUTO 14008KT 10SM CLR 00/M07 A3028 RMK AO2 T10031068
KEZZ 160815Z AUTO 14008KT 10SM CLR M01/M07 A3028 RMK AO2 T10071068